Time;durP1;ratioP1;P1;durP2;ratioP2;P2;SDS_P1;SDS_P2;PMS_P1;PMS_P2;Temp;Humidity;BMP_temperature;BMP_pressure;BME280_temperature;BME280_humidity;BME280_pressure;Samples;Min_cycle;Max_cycle;Signal;HPM_P1;HPM_P2
2021/04/12 00:02:14;;;;;;;1.83;0.80;;;21.60;59.00;;;;;;5112926;27;20031;-35
2021/04/12 00:04:58;;;;;;;1.30;1.00;;;21.50;59.00;;;;;;5108219;28;20023;-35
2021/04/12 00:07:53;;;;;;;1.40;0.80;;;21.50;59.10;;;;;;5091660;28;20024;-35
2021/04/12 00:10:26;;;;;;;1.58;0.90;;;21.50;58.90;;;;;;5021765;28;20038;-35
2021/04/12 00:12:56;;;;;;;1.40;0.88;;;21.50;59.50;;;;;;5022408;28;20034;-35
2021/04/12 00:15:45;;;;;;;0.90;0.90;;;21.50;58.90;;;;;;5022652;28;20077;-35
2021/04/12 00:18:20;;;;;;;1.15;0.70;;;21.50;59.20;;;;;;5006057;28;20030;-35
2021/04/12 00:20:56;;;;;;;1.40;0.90;;;21.50;59.30;;;;;;5006812;28;20038;-34
2021/04/12 00:23:37;;;;;;;0.98;0.80;;;21.50;59.40;;;;;;5005792;28;20041;-34
2021/04/12 00:26:27;;;;;;;1.70;0.90;;;21.40;59.30;;;;;;5005807;28;20041;-35
2021/04/12 00:29:17;;;;;;;1.17;0.68;;;21.40;59.60;;;;;;5038565;28;20033;-34
2021/04/12 00:32:17;;;;;;;1.10;1.00;;;21.40;59.50;;;;;;5027325;28;20034;-35
2021/04/12 00:35:06;;;;;;;1.10;0.80;;;21.40;59.90;;;;;;5021907;28;20029;-35
2021/04/12 00:37:46;;;;;;;1.30;0.90;;;21.40;59.80;;;;;;5037077;28;20056;-34
2021/04/12 00:40:30;;;;;;;0.75;0.75;;;21.40;59.90;;;;;;5038047;28;20040;-35
2021/04/12 00:43:11;;;;;;;0.60;0.60;;;21.40;59.80;;;;;;5021907;28;20101;-34
2021/04/12 00:46:07;;;;;;;1.25;0.80;;;21.30;59.70;;;;;;5021012;28;20030;-34
2021/04/12 00:49:01;;;;;;;1.17;0.85;;;21.30;59.80;;;;;;5087627;28;20028;-34
2021/04/12 00:51:46;;;;;;;0.98;0.60;;;21.30;59.80;;;;;;5104241;28;20028;-34
2021/04/12 00:54:45;;;;;;;1.40;1.00;;;21.30;59.80;;;;;;5124633;28;20051;-34
2021/04/12 00:57:31;;;;;;;2.08;0.95;;;21.30;59.70;;;;;;5106489;28;20023;-37
2021/04/12 01:00:16;;;;;;;1.00;0.85;;;21.20;59.50;;;;;;5124341;28;20053;-34
2021/04/12 01:03:08;;;;;;;1.05;0.80;;;21.20;59.50;;;;;;5124368;28;20024;-34
2021/04/12 01:05:42;;;;;;;1.25;1.00;;;21.20;59.50;;;;;;5106435;28;20028;-34
2021/04/12 01:08:33;;;;;;;0.80;0.80;;;21.20;59.40;;;;;;5107135;28;20051;-35
2021/04/12 01:11:18;;;;;;;0.80;0.70;;;21.20;60.20;;;;;;5117767;28;20646;-34
2021/04/12 01:13:53;;;;;;;0.93;0.80;;;21.20;59.50;;;;;;5109140;28;20032;-34
2021/04/12 01:16:58;;;;;;;1.00;0.90;;;21.10;59.80;;;;;;5103683;28;20133;-34
2021/04/12 01:19:43;;;;;;;0.80;0.80;;;21.10;59.80;;;;;;5095591;28;20035;-36
2021/04/12 01:22:58;;;;;;;1.00;0.80;;;21.10;59.80;;;;;;5100998;28;20058;-35
2021/04/12 01:25:44;;;;;;;1.75;0.88;;;21.10;59.70;;;;;;5083702;28;20142;-34
2021/04/12 01:28:32;;;;;;;1.42;0.95;;;21.10;59.80;;;;;;5115296;28;20075;-34
2021/04/12 01:31:36;;;;;;;2.38;0.90;;;21.00;59.60;;;;;;5083025;28;20058;-35
2021/04/12 01:34:16;;;;;;;1.05;0.77;;;21.00;59.60;;;;;;5083547;28;20029;-34
2021/04/12 01:36:43;;;;;;;1.05;0.88;;;21.00;59.50;;;;;;5115914;28;20048;-34
2021/04/12 01:39:30;;;;;;;1.42;0.80;;;21.00;59.30;;;;;;5102187;28;20035;-34
2021/04/12 01:42:01;;;;;;;0.75;0.70;;;21.00;59.10;;;;;;5102727;28;20036;-34
2021/04/12 01:44:33;;;;;;;1.25;0.77;;;21.00;59.10;;;;;;5083314;28;20161;-35
2021/04/12 01:47:42;;;;;;;1.15;0.90;;;20.90;58.90;;;;;;5082912;28;20024;-34
2021/04/12 01:50:32;;;;;;;1.15;0.77;;;20.90;58.90;;;;;;5081884;28;20104;-34
2021/04/12 01:53:15;;;;;;;1.17;1.05;;;20.90;58.90;;;;;;5092633;28;20033;-35
2021/04/12 01:55:44;;;;;;;1.33;0.90;;;20.90;59.00;;;;;;5101937;28;20035;-34
2021/04/12 01:58:43;;;;;;;1.00;0.90;;;20.80;59.00;;;;;;5120458;28;20043;-34
2021/04/12 02:01:18;;;;;;;1.40;1.00;;;20.80;58.90;;;;;;5122014;28;20062;-34
2021/04/12 02:04:05;;;;;;;1.30;0.90;;;20.80;59.00;;;;;;5122017;28;20045;-35
2021/04/12 02:06:39;;;;;;;1.45;0.90;;;20.80;59.10;;;;;;5105961;28;20547;-35
2021/04/12 02:09:24;;;;;;;0.80;0.70;;;20.70;59.00;;;;;;5118648;28;20056;-35
2021/04/12 02:12:18;;;;;;;0.90;0.80;;;20.70;59.10;;;;;;5066038;28;20053;-35
2021/04/12 02:14:57;;;;;;;1.13;1.00;;;20.70;59.00;;;;;;5071888;28;20828;-34
2021/04/12 02:17:51;;;;;;;1.52;1.02;;;20.70;59.10;;;;;;5065936;28;20016;-34
2021/04/12 02:20:38;;;;;;;1.60;1.10;;;20.70;59.00;;;;;;5082512;28;20060;-35
2021/04/12 02:23:26;;;;;;;1.23;0.80;;;20.60;59.00;;;;;;5081062;28;20036;-34
2021/04/12 02:26:11;;;;;;;1.30;1.15;;;20.60;59.20;;;;;;5068632;28;20029;-39
2021/04/12 02:28:50;;;;;;;1.17;1.05;;;20.60;59.00;;;;;;5062603;28;20033;-35
2021/04/12 02:31:38;;;;;;;1.23;0.85;;;20.60;59.20;;;;;;5060602;28;20287;-34
2021/04/12 02:34:09;;;;;;;1.20;0.85;;;20.60;59.20;;;;;;5062516;28;20029;-34
2021/04/12 02:36:41;;;;;;;1.65;1.08;;;20.60;59.30;;;;;;5060886;28;20494;-34
2021/04/12 02:39:38;;;;;;;1.23;0.95;;;20.50;59.20;;;;;;5062483;28;20033;-34
2021/04/12 02:42:20;;;;;;;1.73;1.05;;;20.50;59.00;;;;;;5056182;28;20051;-34
2021/04/12 02:45:08;;;;;;;1.17;0.93;;;20.50;59.50;;;;;;5093583;28;20036;-34
2021/04/12 02:47:40;;;;;;;1.35;1.10;;;20.50;59.40;;;;;;5094012;28;20079;-34
2021/04/12 02:50:23;;;;;;;1.30;0.88;;;20.50;59.30;;;;;;5062354;28;20029;-34
2021/04/12 02:53:23;;;;;;;1.23;1.13;;;20.40;59.30;;;;;;5061885;28;20044;-34
2021/04/12 02:55:49;;;;;;;3.42;1.05;;;20.40;59.40;;;;;;5060896;28;20039;-34
2021/04/12 02:58:52;;;;;;;2.08;0.90;;;20.40;59.40;;;;;;5062177;28;20025;-34
2021/04/12 03:01:43;;;;;;;1.83;1.10;;;20.30;59.30;;;;;;5062153;28;20029;-34
2021/04/12 03:04:57;;;;;;;1.10;0.90;;;20.30;59.40;;;;;;5062186;28;20033;-34
2021/04/12 03:07:46;;;;;;;1.92;1.02;;;20.30;59.30;;;;;;4984335;28;20031;-34
2021/04/12 03:10:19;;;;;;;;;;;20.30;59.40;;;;;;4996165;28;20784;-34
2021/04/12 03:12:54;;;;;;;1.17;1.02;;;20.30;59.30;;;;;;5007062;28;19976;-34
2021/04/12 03:15:38;;;;;;;1.33;0.80;;;20.20;59.30;;;;;;5007026;28;20029;-34
2021/04/12 03:18:22;;;;;;;1.52;1.00;;;20.20;59.40;;;;;;5016225;28;20870;-34
2021/04/12 03:21:11;;;;;;;1.48;1.08;;;20.20;59.60;;;;;;5003729;28;20023;-34
2021/04/12 03:23:51;;;;;;;1.10;0.90;;;20.20;59.60;;;;;;4989451;28;20166;-34
2021/04/12 03:26:54;;;;;;;1.00;0.73;;;20.10;59.40;;;;;;5017797;28;20041;-34
2021/04/12 03:29:32;;;;;;;1.42;1.00;;;20.10;59.30;;;;;;5042765;28;20065;-34
2021/04/12 03:32:10;;;;;;;1.05;0.95;;;20.10;59.70;;;;;;5038585;28;20088;-34
2021/04/12 03:34:36;;;;;;;;;;;20.00;59.60;;;;;;5043377;28;20033;-34
2021/04/12 03:37:35;;;;;;;1.33;1.00;;;20.00;59.50;;;;;;5046879;28;19909;-34
2021/04/12 03:40:29;;;;;;;2.17;1.15;;;20.00;59.50;;;;;;5084306;28;20089;-34
2021/04/12 03:43:26;;;;;;;1.40;1.00;;;20.00;59.70;;;;;;5083840;28;20475;-34
2021/04/12 03:46:11;;;;;;;1.55;0.90;;;20.00;59.70;;;;;;5084151;28;20047;-34
2021/04/12 03:49:06;;;;;;;1.88;1.00;;;20.00;59.70;;;;;;5085259;28;20024;-34
2021/04/12 03:51:41;;;;;;;1.45;1.17;;;20.00;59.80;;;;;;5062797;28;20031;-34
2021/04/12 03:54:46;;;;;;;1.35;1.17;;;19.90;59.80;;;;;;5083525;28;20020;-34
2021/04/12 03:57:24;;;;;;;1.88;1.10;;;19.90;59.80;;;;;;5033465;28;20120;-34
2021/04/12 04:00:35;;;;;;;1.98;1.20;;;19.90;59.70;;;;;;5065158;28;20050;-34
2021/04/12 04:03:28;;;;;;;1.35;1.10;;;19.80;59.80;;;;;;5002316;28;20133;-34
2021/04/12 04:06:35;;;;;;;1.13;1.02;;;19.80;59.70;;;;;;5002900;28;20027;-34
2021/04/12 04:09:09;;;;;;;1.38;1.00;;;19.80;59.80;;;;;;4991955;28;20065;-34
2021/04/12 04:12:03;;;;;;;1.50;1.10;;;19.80;59.90;;;;;;4999473;28;20596;-34
2021/04/12 04:14:47;;;;;;;1.15;1.05;;;19.70;59.80;;;;;;5040690;28;20040;-34
2021/04/12 04:17:52;;;;;;;1.25;1.00;;;19.70;59.80;;;;;;5041939;28;20044;-34
2021/04/12 04:20:32;;;;;;;1.25;1.10;;;19.70;60.00;;;;;;5040701;28;20121;-34
2021/04/12 04:23:21;;;;;;;2.05;1.00;;;19.60;59.90;;;;;;5015736;28;20141;-34
2021/04/12 04:25:53;;;;;;;1.92;1.60;;;19.60;59.90;;;;;;5044334;28;20063;-34
2021/04/12 04:28:50;;;;;;;1.90;1.27;;;19.60;60.00;;;;;;5061778;28;20092;-34
2021/04/12 04:31:39;;;;;;;1.40;1.20;;;19.60;60.10;;;;;;5061795;28;20105;-34
2021/04/12 04:34:54;;;;;;;1.30;1.10;;;19.60;60.20;;;;;;5044753;28;20040;-34
2021/04/12 04:37:34;;;;;;;2.25;1.00;;;19.60;60.30;;;;;;5037231;28;20067;-34
2021/04/12 04:40:11;;;;;;;1.85;1.08;;;19.50;60.40;;;;;;5090799;28;20043;-34
2021/04/12 04:42:48;;;;;;;1.58;1.10;;;19.50;60.60;;;;;;5103147;28;20047;-34
2021/04/12 04:45:32;;;;;;;1.25;1.05;;;19.60;60.50;;;;;;5103091;28;20020;-34
2021/04/12 04:48:13;;;;;;;2.40;1.33;;;19.50;60.50;;;;;;5104489;28;20027;-34
2021/04/12 04:51:01;;;;;;;1.30;1.10;;;19.50;60.30;;;;;;5102995;28;20036;-34
2021/04/12 04:53:38;;;;;;;2.38;1.20;;;19.40;60.50;;;;;;5090448;28;20028;-34
2021/04/12 04:56:26;;;;;;;1.35;1.20;;;19.40;60.30;;;;;;5110545;28;20396;-34
2021/04/12 04:58:55;;;;;;;3.17;1.00;;;19.40;60.50;;;;;;5124675;28;20031;-34
2021/04/12 05:01:32;;;;;;;2.78;1.05;;;19.40;60.40;;;;;;5124477;28;20028;-34
2021/04/12 05:04:20;;;;;;;1.60;1.23;;;19.40;60.70;;;;;;5106643;28;20794;-34
2021/04/12 05:07:10;;;;;;;1.25;1.05;;;19.40;60.70;;;;;;5124762;28;20094;-34
2021/04/12 05:09:45;;;;;;;1.70;1.20;;;19.30;60.60;;;;;;5119450;28;20039;-35
2021/04/12 05:12:39;;;;;;;1.88;1.33;;;19.30;60.70;;;;;;5121728;28;20143;-35
2021/04/12 05:15:20;;;;;;;1.20;1.10;;;19.30;60.70;;;;;;5106870;28;20144;-34
2021/04/12 05:18:00;;;;;;;1.42;1.30;;;19.30;60.70;;;;;;5105531;28;20557;-34
2021/04/12 05:20:52;;;;;;;2.08;1.40;;;19.30;60.80;;;;;;5105984;28;20034;-34
2021/04/12 05:23:39;;;;;;;1.40;1.30;;;19.30;60.80;;;;;;5105471;28;20031;-37
2021/04/12 05:26:35;;;;;;;2.65;1.50;;;19.20;60.70;;;;;;5119632;27;20034;-34
2021/04/12 05:29:36;;;;;;;2.83;1.27;;;19.20;60.90;;;;;;5126263;27;20031;-34
2021/04/12 05:32:28;;;;;;;1.92;1.10;;;19.20;60.90;;;;;;5079829;28;20029;-34
2021/04/12 05:35:13;;;;;;;2.28;1.25;;;19.10;61.00;;;;;;5079759;28;20052;-34
2021/04/12 05:38:08;;;;;;;2.53;1.25;;;19.10;61.00;;;;;;5076934;28;20660;-34
2021/04/12 05:41:08;;;;;;;2.10;1.10;;;19.10;61.10;;;;;;5074205;28;20092;-34
2021/04/12 05:44:13;;;;;;;1.95;1.13;;;19.00;61.10;;;;;;5060433;28;20048;-34
2021/04/12 05:46:53;;;;;;;2.53;1.40;;;19.00;61.20;;;;;;5057815;28;20640;-34
2021/04/12 05:49:47;;;;;;;1.70;1.35;;;19.00;61.30;;;;;;5060191;28;20136;-34
2021/04/12 05:52:42;;;;;;;2.08;1.42;;;19.00;61.20;;;;;;5055014;28;20044;-34
2021/04/12 05:55:27;;;;;;;1.42;1.27;;;19.00;61.40;;;;;;5066045;28;20087;-34
2021/04/12 05:58:27;;;;;;;1.45;1.25;;;19.00;61.40;;;;;;5079876;28;20028;-34
2021/04/12 06:01:20;;;;;;;2.03;1.23;;;18.90;61.30;;;;;;5062854;28;20043;-34
2021/04/12 06:04:11;;;;;;;1.58;1.30;;;18.90;61.40;;;;;;5065799;28;20079;-34
2021/04/12 06:06:59;;;;;;;2.75;1.48;;;18.90;61.40;;;;;;5069692;28;20033;-34
2021/04/12 06:09:44;;;;;;;1.70;1.30;;;18.90;61.40;;;;;;5125682;27;20020;-34
2021/04/12 06:12:36;;;;;;;2.63;1.50;;;18.90;61.50;;;;;;5143026;27;20054;-34
2021/04/12 06:15:06;;;;;;;2.22;1.60;;;18.80;61.50;;;;;;5122327;28;20036;-34
2021/04/12 06:17:42;;;;;;;2.17;1.60;;;18.80;61.60;;;;;;5104740;28;20087;-34
2021/04/12 06:20:29;;;;;;;1.70;1.30;;;18.80;61.70;;;;;;5104936;28;20023;-34
2021/04/12 06:23:09;;;;;;;2.17;1.40;;;18.80;61.50;;;;;;5097140;28;20043;-34
2021/04/12 06:25:45;;;;;;;1.75;1.40;;;18.80;61.50;;;;;;5138061;27;20015;-34
2021/04/12 06:28:30;;;;;;;2.45;1.50;;;18.70;61.60;;;;;;5143548;27;20031;-34
2021/04/12 06:31:22;;;;;;;1.75;1.45;;;18.70;61.70;;;;;;5143540;27;20019;-34
2021/04/12 06:33:59;;;;;;;2.13;1.50;;;18.70;61.70;;;;;;5111609;27;20027;-34
2021/04/12 06:36:37;;;;;;;1.80;1.58;;;18.60;61.70;;;;;;5126188;28;20015;-34
2021/04/12 06:39:22;;;;;;;2.47;1.42;;;18.60;61.80;;;;;;5124965;28;20776;-34
2021/04/12 06:42:00;;;;;;;1.80;1.40;;;18.60;61.70;;;;;;5117205;28;20028;-34
2021/04/12 06:45:00;;;;;;;1.85;1.17;;;18.60;61.90;;;;;;5122628;28;20118;-34
2021/04/12 06:47:41;;;;;;;2.22;1.63;;;18.60;61.80;;;;;;5105805;28;20030;-34
2021/04/12 06:50:29;;;;;;;2.63;1.52;;;18.60;61.80;;;;;;5122789;28;20024;-34
2021/04/12 06:53:07;;;;;;;1.88;1.30;;;18.50;61.80;;;;;;5122684;28;20053;-34
2021/04/12 06:55:56;;;;;;;1.88;1.50;;;18.50;62.00;;;;;;5122562;28;20152;-34
2021/04/12 06:59:00;;;;;;;1.90;1.40;;;18.50;62.10;;;;;;5120197;28;20049;-34
2021/04/12 07:01:54;;;;;;;2.97;1.52;;;18.50;62.10;;;;;;5122773;28;20023;-34
2021/04/12 07:04:54;;;;;;;1.73;1.17;;;18.50;62.00;;;;;;5104885;28;20040;-34
2021/04/12 07:07:43;;;;;;;1.45;1.35;;;18.50;62.20;;;;;;5122611;28;20130;-34
2021/04/12 07:10:31;;;;;;;3.25;1.70;;;18.40;62.00;;;;;;5108554;28;20032;-34
2021/04/12 07:13:25;;;;;;;2.00;1.42;;;18.40;62.10;;;;;;5143316;28;20505;-34
2021/04/12 07:15:54;;;;;;;2.80;1.42;;;18.40;62.10;;;;;;5142786;28;20038;-34
2021/04/12 07:18:46;;;;;;;1.63;1.40;;;18.40;62.30;;;;;;5142889;28;20035;-34
2021/04/12 07:21:27;;;;;;;2.00;1.30;;;18.40;62.10;;;;;;5119780;28;20016;-34
2021/04/12 07:24:31;;;;;;;1.90;1.58;;;18.30;62.20;;;;;;5122307;28;20491;-34
2021/04/12 07:27:00;;;;;;;2.05;1.38;;;18.30;62.10;;;;;;5079894;28;20035;-34
2021/04/12 07:29:51;;;;;;;2.03;1.25;;;18.30;62.40;;;;;;5122691;28;20024;-34
2021/04/12 07:32:43;;;;;;;1.88;1.30;;;18.30;62.50;;;;;;5122447;28;20541;-34
2021/04/12 07:35:18;;;;;;;1.83;1.55;;;18.30;62.30;;;;;;5122395;28;20054;-34
2021/04/12 07:38:10;;;;;;;1.85;1.45;;;18.20;62.40;;;;;;5122547;28;20059;-34
2021/04/12 07:40:44;;;;;;;1.42;1.30;;;18.20;62.30;;;;;;5043552;28;20567;-34
2021/04/12 07:43:35;;;;;;;2.53;1.42;;;18.20;62.30;;;;;;5058971;28;20651;-34
2021/04/12 07:48:57;;;;;;;;;;;18.10;62.50;;;;;;5059347;28;20152;-34
2021/04/12 07:51:48;;;;;;;1.60;1.42;;;18.10;62.30;;;;;;5058781;28;19911;-34
2021/04/12 07:54:45;;;;;;;2.05;1.50;;;18.10;62.70;;;;;;5040942;28;20029;-34
2021/04/12 07:57:45;;;;;;;2.40;1.58;;;18.00;62.70;;;;;;5045053;28;20025;-34
2021/04/12 08:00:42;;;;;;;2.78;1.40;;;18.10;62.60;;;;;;5025764;28;20025;-34
2021/04/12 08:03:58;;;;;;;1.33;1.10;;;18.00;62.60;;;;;;5042207;28;20041;-34
2021/04/12 08:06:48;;;;;;;1.63;1.30;;;18.00;62.70;;;;;;4983116;28;20034;-34
2021/04/12 08:09:35;;;;;;;2.30;1.33;;;18.00;62.70;;;;;;4983199;28;20039;-35
2021/04/12 08:12:04;;;;;;;1.70;1.30;;;17.90;62.80;;;;;;4984105;28;20039;-34
2021/04/12 08:14:54;;;;;;;1.75;1.38;;;18.00;62.80;;;;;;4983237;28;20050;-34
2021/04/12 08:17:53;;;;;;;2.85;1.52;;;17.90;62.60;;;;;;4994697;28;20034;-34
2021/04/12 08:20:55;;;;;;;1.88;1.27;;;17.90;62.60;;;;;;5005927;28;20053;-34
2021/04/12 08:23:46;;;;;;;2.05;1.48;;;17.90;62.70;;;;;;5038637;28;20047;-34
2021/04/12 08:26:33;;;;;;;1.98;1.40;;;17.90;62.80;;;;;;5021853;28;20046;-34
2021/04/12 08:29:36;;;;;;;1.63;1.27;;;17.80;62.80;;;;;;5020641;28;20663;-34
2021/04/12 08:32:39;;;;;;;2.50;1.52;;;17.90;62.90;;;;;;5022230;28;20081;-34
2021/04/12 08:35:24;;;;;;;1.75;1.42;;;17.80;62.70;;;;;;5021984;28;20185;-34
2021/04/12 08:38:02;;;;;;;1.80;1.45;;;17.80;62.80;;;;;;5038286;28;20038;-34
2021/04/12 08:40:47;;;;;;;2.03;1.40;;;17.80;63.60;;;;;;5032684;28;20049;-33
2021/04/12 08:43:25;;;;;;;1.67;1.40;;;17.80;62.90;;;;;;5122755;28;20043;-34
2021/04/12 08:46:29;;;;;;;1.77;1.30;;;17.80;62.90;;;;;;5124769;28;20107;-34
2021/04/12 08:49:42;;;;;;;6.75;1.90;;;17.70;62.70;;;;;;5124943;28;20043;-34
2021/04/12 08:52:26;;;;;;;2.22;1.40;;;17.70;62.80;;;;;;5077294;27;20065;-34
2021/04/12 08:55:23;;;;;;;2.00;1.45;;;17.70;62.90;;;;;;5145511;27;20455;-34
2021/04/12 08:58:06;;;;;;;2.75;1.50;;;17.70;63.00;;;;;;5145064;27;20034;-34
2021/04/12 09:00:54;;;;;;;1.92;1.60;;;17.70;63.00;;;;;;5110676;27;20030;-38
2021/04/12 09:03:33;;;;;;;1.50;1.40;;;17.60;63.10;;;;;;5145210;27;20031;-34
2021/04/12 09:06:08;;;;;;;1.92;1.40;;;17.60;63.00;;;;;;5126127;27;20024;-34
2021/04/12 09:08:49;;;;;;;1.75;1.42;;;17.60;63.10;;;;;;5144925;27;20034;-34
2021/04/12 09:11:25;;;;;;;1.70;1.50;;;17.60;63.10;;;;;;5137581;27;20043;-34
2021/04/12 09:14:28;;;;;;;2.75;1.50;;;17.60;63.10;;;;;;5135876;27;20034;-34
2021/04/12 09:17:32;;;;;;;2.15;1.60;;;17.50;63.00;;;;;;5120477;28;20032;-34
2021/04/12 09:20:15;;;;;;;2.40;1.67;;;17.50;63.10;;;;;;5021236;28;20052;-34
2021/04/12 09:23:18;;;;;;;1.92;1.70;;;17.50;63.00;;;;;;5004575;28;20885;-34
2021/04/12 09:26:15;;;;;;;2.20;1.42;;;17.50;63.30;;;;;;5020927;28;20053;-34
2021/04/12 09:29:19;;;;;;;2.17;1.70;;;17.50;63.20;;;;;;5020719;28;20030;-34
2021/04/12 09:31:51;;;;;;;2.10;1.50;;;17.50;63.10;;;;;;5021004;28;20132;-34
2021/04/12 09:34:56;;;;;;;2.60;1.65;;;17.50;63.90;;;;;;5021006;28;20038;-34
2021/04/12 09:37:43;;;;;;;2.42;1.70;;;17.40;63.10;;;;;;5001322;28;20034;-34
2021/04/12 09:40:18;;;;;;;2.15;1.42;;;17.40;63.20;;;;;;4985701;28;20030;-37
2021/04/12 09:43:07;;;;;;;1.83;1.40;;;17.30;63.30;;;;;;5001057;28;20042;-34
2021/04/12 09:45:57;;;;;;;2.00;1.50;;;17.40;63.30;;;;;;4971326;28;20125;-34
2021/04/12 09:48:53;;;;;;;1.42;1.30;;;17.40;63.30;;;;;;4986324;28;20026;-34
2021/04/12 09:51:32;;;;;;;1.60;1.50;;;17.30;63.30;;;;;;4981862;28;20089;-34
2021/04/12 09:54:36;;;;;;;2.42;1.60;;;17.30;63.30;;;;;;4998699;28;20045;-33
2021/04/12 09:57:39;;;;;;;1.73;1.60;;;17.40;63.20;;;;;;5058855;28;20040;-33
2021/04/12 10:00:26;;;;;;;2.33;1.52;;;17.30;63.20;;;;;;5058338;28;20029;-34
2021/04/12 10:03:30;;;;;;;3.08;1.60;;;17.30;63.20;;;;;;5043387;28;20028;-34
2021/04/12 10:06:18;;;;;;;3.88;1.60;;;17.30;63.30;;;;;;5000693;28;20046;-34
2021/04/12 10:09:34;;;;;;;2.78;1.77;;;17.20;63.30;;;;;;5017127;28;20046;-34
2021/04/12 10:12:29;;;;;;;2.15;1.60;;;17.20;63.40;;;;;;4980697;28;20046;-34
2021/04/12 10:15:12;;;;;;;2.17;1.77;;;17.20;63.40;;;;;;4980277;28;20106;-33
2021/04/12 10:18:13;;;;;;;2.78;1.70;;;17.20;63.40;;;;;;4980013;28;20065;-34
2021/04/12 10:20:49;;;;;;;2.85;1.88;;;17.20;63.50;;;;;;4979235;28;20031;-34
2021/04/12 10:23:20;;;;;;;2.13;1.35;;;17.10;63.50;;;;;;4981208;28;20123;-34
2021/04/12 10:26:01;;;;;;;1.73;1.50;;;17.10;63.60;;;;;;4980822;28;20031;-34
2021/04/12 10:28:56;;;;;;;2.78;1.70;;;17.10;63.50;;;;;;4981119;28;20562;-33
2021/04/12 10:31:27;;;;;;;1.65;1.55;;;17.10;63.50;;;;;;4976986;28;20035;-34
2021/04/12 10:34:10;;;;;;;1.60;1.50;;;17.10;63.50;;;;;;4980856;28;20034;-34
2021/04/12 10:36:50;;;;;;;1.75;1.42;;;17.10;63.60;;;;;;4964689;28;20116;-33
2021/04/12 10:39:28;;;;;;;1.85;1.52;;;17.10;63.60;;;;;;5001398;28;20043;-33
2021/04/12 10:42:00;;;;;;;1.75;1.38;;;17.00;63.60;;;;;;5074430;28;20032;-34
2021/04/12 10:44:41;;;;;;;1.98;1.50;;;17.00;63.60;;;;;;5083856;28;20103;-34
2021/04/12 10:47:10;;;;;;;1.98;1.30;;;17.00;64.20;;;;;;5095157;28;20059;-34
2021/04/12 10:49:58;;;;;;;2.42;1.45;;;17.00;63.60;;;;;;5143630;28;20023;-34
2021/04/12 10:53:02;;;;;;;1.85;1.67;;;17.00;63.70;;;;;;5120172;28;20034;-36
2021/04/12 10:55:46;;;;;;;2.03;1.55;;;16.90;63.60;;;;;;5123142;28;20028;-33
2021/04/12 10:58:52;;;;;;;1.50;1.40;;;16.90;63.70;;;;;;5122877;28;20562;-34
2021/04/12 11:01:25;;;;;;;1.75;1.60;;;16.90;63.70;;;;;;5104698;28;20031;-35
2021/04/12 11:04:15;;;;;;;2.25;1.70;;;16.90;63.80;;;;;;5122800;28;20039;-34
2021/04/12 11:07:06;;;;;;;2.15;1.75;;;16.80;63.80;;;;;;5121294;28;20109;-34
2021/04/12 11:09:44;;;;;;;2.40;1.52;;;16.90;63.80;;;;;;5101511;28;20016;-33
2021/04/12 11:12:22;;;;;;;;;;;16.80;63.80;;;;;;5102804;28;20082;-33
2021/04/12 11:15:23;;;;;;;2.22;1.55;;;16.80;63.80;;;;;;5102569;28;19904;-34
2021/04/12 11:18:09;;;;;;;2.00;1.67;;;16.80;63.90;;;;;;5077125;28;20036;-34
2021/04/12 11:20:38;;;;;;;1.52;1.38;;;16.80;63.90;;;;;;5065112;28;20033;-34
2021/04/12 11:23:09;;;;;;;1.83;1.63;;;16.80;63.90;;;;;;5079252;28;20048;-33
2021/04/12 11:25:58;;;;;;;2.03;1.60;;;16.70;63.90;;;;;;5063330;28;20025;-34
2021/04/12 11:28:33;;;;;;;;;;;16.80;63.90;;;;;;5049371;28;20067;-37
2021/04/12 11:31:23;;;;;;;2.67;1.60;;;16.70;63.80;;;;;;5083069;28;19908;-34
2021/04/12 11:34:01;;;;;;;1.70;1.58;;;16.70;64.00;;;;;;5082963;28;20107;-33
2021/04/12 11:36:46;;;;;;;2.08;1.75;;;16.70;64.00;;;;;;5083048;28;20047;-33
2021/04/12 11:39:26;;;;;;;1.95;1.40;;;16.70;64.00;;;;;;5083112;28;20016;-34
2021/04/12 11:41:57;;;;;;;2.08;1.77;;;16.70;64.10;;;;;;5066326;28;20021;-33
2021/04/12 11:44:50;;;;;;;3.05;1.60;;;16.60;63.90;;;;;;5066485;28;20115;-34
2021/04/12 11:47:22;;;;;;;2.30;1.75;;;16.60;64.00;;;;;;5082682;28;20032;-34
2021/04/12 11:50:14;;;;;;;2.00;1.60;;;16.60;64.10;;;;;;5083012;28;20029;-34
2021/04/12 11:52:58;;;;;;;2.65;1.75;;;16.60;64.10;;;;;;5074815;27;20035;-34
2021/04/12 11:55:34;;;;;;;1.70;1.50;;;16.60;64.10;;;;;;5125845;27;20035;-34
2021/04/12 11:58:16;;;;;;;2.42;1.55;;;16.50;64.00;;;;;;5112019;27;20062;-34
2021/04/12 12:01:01;;;;;;;1.60;1.50;;;16.50;64.10;;;;;;5124056;27;20052;-34
2021/04/12 12:03:59;;;;;;;1.90;1.70;;;16.50;64.10;;;;;;5146246;27;20031;-34
2021/04/12 12:06:38;;;;;;;2.63;1.50;;;16.50;64.10;;;;;;5062655;28;20101;-34
2021/04/12 12:09:15;;;;;;;2.42;1.40;;;16.50;64.10;;;;;;5062347;28;20041;-34
2021/04/12 12:12:06;;;;;;;1.63;1.40;;;16.50;64.10;;;;;;5042338;28;20106;-33
2021/04/12 12:15:13;;;;;;;2.70;1.70;;;16.50;64.10;;;;;;5042397;28;20084;-34
2021/04/12 12:17:51;;;;;;;2.00;1.63;;;16.50;64.20;;;;;;5058582;28;20025;-34
2021/04/12 12:20:19;;;;;;;3.00;1.95;;;16.50;64.20;;;;;;5045541;28;20021;-34
2021/04/12 12:23:12;;;;;;;1.65;1.45;;;16.50;64.20;;;;;;5038178;28;20059;-34
2021/04/12 12:25:47;;;;;;;1.65;1.50;;;16.50;64.10;;;;;;5032376;28;20041;-34
2021/04/12 12:28:21;;;;;;;2.17;1.60;;;16.40;64.20;;;;;;5041949;28;20033;-34
2021/04/12 12:30:52;;;;;;;3.75;1.70;;;16.40;64.00;;;;;;5042527;28;20033;-34
2021/04/12 12:33:23;;;;;;;2.72;1.85;;;16.40;64.10;;;;;;5041910;28;20129;-34
2021/04/12 12:36:06;;;;;;;2.45;1.40;;;16.40;64.10;;;;;;5042215;28;20045;-34
2021/04/12 12:38:43;;;;;;;2.38;1.55;;;16.40;64.00;;;;;;5041812;28;20033;-33
2021/04/12 12:41:16;;;;;;;3.38;1.58;;;16.40;64.20;;;;;;5051184;28;20035;-34
2021/04/12 12:43:42;;;;;;;2.08;1.48;;;16.40;64.00;;;;;;5106921;28;20095;-34
2021/04/12 12:46:27;;;;;;;2.55;1.70;;;16.40;64.10;;;;;;5102973;28;20109;-33
2021/04/12 12:48:54;;;;;;;1.55;1.45;;;16.40;64.10;;;;;;5086413;28;20050;-33
2021/04/12 12:51:33;;;;;;;2.85;1.30;;;16.40;64.10;;;;;;5086769;28;20032;-33
2021/04/12 12:54:06;;;;;;;1.73;1.40;;;16.40;64.20;;;;;;5123043;27;20031;-34
2021/04/12 12:56:37;;;;;;;2.17;1.58;;;16.40;64.30;;;;;;5145624;27;20015;-33
2021/04/12 12:59:06;;;;;;;4.88;1.80;;;16.40;64.20;;;;;;5145509;27;20047;-33
2021/04/12 13:01:40;;;;;;;2.08;1.60;;;16.40;64.30;;;;;;5127428;27;20023;-33
2021/04/12 13:04:26;;;;;;;1.85;1.63;;;16.40;64.30;;;;;;5127413;27;20031;-33
2021/04/12 13:06:54;;;;;;;1.58;1.48;;;16.40;64.40;;;;;;5129492;27;20023;-34
2021/04/12 13:09:31;;;;;;;1.52;1.38;;;16.40;64.50;;;;;;5125573;27;20122;-34
2021/04/12 13:12:17;;;;;;;1.70;1.60;;;16.40;64.40;;;;;;5107169;28;20044;-33
2021/04/12 13:14:50;;;;;;;1.55;1.30;;;16.40;64.40;;;;;;5106466;28;20051;-34
2021/04/12 13:17:26;;;;;;;2.10;1.90;;;16.40;64.40;;;;;;5119978;27;20026;-34
2021/04/12 13:20:07;;;;;;;1.83;1.45;;;16.40;64.40;;;;;;5126680;27;20023;-33
2021/04/12 13:22:38;;;;;;;2.90;1.60;;;16.40;64.40;;;;;;5138854;27;20096;-34
2021/04/12 13:25:37;;;;;;;2.00;1.50;;;16.40;64.30;;;;;;5106570;28;20019;-34
2021/04/12 13:28:21;;;;;;;2.35;1.70;;;16.40;64.20;;;;;;5124512;28;20032;-34
2021/04/12 13:31:07;;;;;;;2.28;1.80;;;16.40;64.30;;;;;;5123945;28;20411;-33
2021/04/12 13:33:47;;;;;;;2.15;1.55;;;16.40;64.20;;;;;;5106056;28;20031;-33
2021/04/12 13:36:31;;;;;;;2.30;1.60;;;16.40;64.20;;;;;;5140064;27;20032;-33
2021/04/12 13:39:03;;;;;;;1.90;1.52;;;16.40;64.20;;;;;;5105844;28;20034;-33
2021/04/12 13:41:34;;;;;;;1.85;1.60;;;16.40;64.20;;;;;;5104500;28;20028;-33
2021/04/12 13:44:08;;;;;;;1.65;1.52;;;16.40;64.20;;;;;;5103730;28;20028;-33
2021/04/12 13:46:58;;;;;;;1.65;1.55;;;16.40;64.10;;;;;;5068777;28;20024;-34
2021/04/12 13:49:36;;;;;;;1.88;1.50;;;16.50;64.20;;;;;;5087979;28;20032;-34
2021/04/12 13:52:05;;;;;;;1.73;1.48;;;16.40;64.10;;;;;;5088813;28;20023;-33
2021/04/12 13:54:42;;;;;;;2.40;1.60;;;16.50;64.10;;;;;;5126186;27;20034;-35
2021/04/12 13:57:31;;;;;;;2.00;1.70;;;16.50;64.20;;;;;;5140316;27;20042;-35
2021/04/12 14:00:17;;;;;;;1.45;1.33;;;16.50;64.20;;;;;;5096941;28;20032;-34
2021/04/12 14:02:55;;;;;;;2.47;1.35;;;16.50;64.10;;;;;;5126860;27;20451;-34
2021/04/12 14:05:25;;;;;;;2.60;1.52;;;16.50;64.10;;;;;;5144365;27;20036;-34
2021/04/12 14:08:01;;;;;;;1.63;1.40;;;16.60;64.10;;;;;;5126184;27;20033;-34
2021/04/12 14:10:33;;;;;;;1.60;1.27;;;16.60;64.00;;;;;;5115142;28;20030;-34
2021/04/12 14:13:03;;;;;;;2.17;1.30;;;16.60;64.10;;;;;;5105513;28;20047;-34
2021/04/12 14:15:48;;;;;;;1.70;1.30;;;16.60;64.10;;;;;;5105501;28;20589;-34
2021/04/12 14:18:26;;;;;;;1.50;1.38;;;16.60;64.20;;;;;;5125797;27;20020;-34
2021/04/12 14:20:52;;;;;;;1.92;1.30;;;16.60;64.30;;;;;;5088994;28;20035;-34
2021/04/12 14:23:26;;;;;;;1.77;1.60;;;16.60;64.30;;;;;;5123565;28;20040;-34
2021/04/12 14:25:59;;;;;;;1.60;1.40;;;16.70;64.40;;;;;;5089006;28;20027;-34